Time;durP1;ratioP1;P1;durP2;ratioP2;P2;SDS_P1;SDS_P2;PMS_P1;PMS_P2;Temp;Humidity;BMP_temperature;BMP_pressure;BME280_temperature;BME280_humidity;BME280_pressure;Samples;Min_cycle;Max_cycle;Signal;HPM_P1;HPM_P2
2023/03/06 00:02:08;;;;;;;4.45;3.00;;;16.00;33.10;;;;;;5135626;27;20763;-71
2023/03/06 00:04:35;;;;;;;3.83;3.00;;;16.00;33.20;;;;;;5136340;27;20208;-71
2023/03/06 00:07:02;;;;;;;4.20;3.05;;;16.00;33.20;;;;;;5135277;27;20706;-71
2023/03/06 00:09:31;;;;;;;5.20;2.83;;;16.00;33.20;;;;;;5136055;27;20212;-73
2023/03/06 00:11:58;;;;;;;4.72;3.00;;;16.00;33.20;;;;;;5135726;27;20658;-71
2023/03/06 00:14:25;;;;;;;5.55;3.13;;;16.00;33.20;;;;;;5135826;27;20209;-72
2023/03/06 00:16:55;;;;;;;3.38;2.88;;;16.00;33.20;;;;;;5135729;27;20181;-72
2023/03/06 00:19:24;;;;;;;4.90;3.08;;;16.00;33.20;;;;;;5135206;27;20631;-71
2023/03/06 00:21:51;;;;;;;4.63;3.40;;;16.00;33.20;;;;;;5135578;27;20216;-75
2023/03/06 00:24:18;;;;;;;5.68;3.25;;;16.00;33.20;;;;;;5136147;27;20224;-71
2023/03/06 00:26:46;;;;;;;5.07;3.20;;;16.00;33.30;;;;;;5135302;27;20185;-72
2023/03/06 00:29:14;;;;;;;4.35;2.90;;;16.00;33.30;;;;;;5134951;27;20220;-73
2023/03/06 00:31:45;;;;;;;4.18;3.00;;;16.00;33.30;;;;;;5135841;27;20196;-71
2023/03/06 00:34:12;;;;;;;3.67;2.85;;;16.00;33.40;;;;;;5135780;27;20311;-71
2023/03/06 00:36:41;;;;;;;3.42;3.10;;;16.00;33.40;;;;;;5135522;27;20228;-73
2023/03/06 00:39:08;;;;;;;4.45;3.08;;;16.00;33.50;;;;;;5135064;27;20213;-73
2023/03/06 00:41:35;;;;;;;5.18;3.30;;;16.00;33.50;;;;;;5136183;27;20734;-71
2023/03/06 00:44:03;;;;;;;4.25;2.85;;;16.00;33.50;;;;;;5136390;27;20235;-70
2023/03/06 00:46:30;;;;;;;3.40;2.95;;;16.00;33.50;;;;;;5136664;27;20635;-74
2023/03/06 00:48:57;;;;;;;4.72;2.83;;;16.00;33.60;;;;;;5135482;27;20626;-72
2023/03/06 00:51:24;;;;;;;3.80;3.10;;;16.00;33.60;;;;;;5135442;27;20702;-70
2023/03/06 00:53:53;;;;;;;4.57;3.00;;;16.00;33.60;;;;;;5135145;27;20265;-71
2023/03/06 00:56:20;;;;;;;3.20;2.88;;;16.00;33.60;;;;;;5135589;27;20192;-70
2023/03/06 00:58:47;;;;;;;4.20;3.13;;;16.00;33.60;;;;;;5134475;27;20217;-70
2023/03/06 01:01:15;;;;;;;4.60;3.10;;;16.00;33.60;;;;;;5133239;27;20689;-76
2023/03/06 01:03:42;;;;;;;5.47;2.80;;;16.00;33.60;;;;;;5134387;27;20689;-69
2023/03/06 01:06:09;;;;;;;3.72;2.85;;;16.00;33.70;;;;;;5134341;27;20181;-70
2023/03/06 01:08:36;;;;;;;5.35;3.15;;;16.00;33.70;;;;;;5135040;27;20277;-72
2023/03/06 01:11:05;;;;;;;5.28;3.05;;;16.00;33.80;;;;;;5134286;27;20586;-70
2023/03/06 01:13:33;;;;;;;4.50;2.92;;;16.00;33.80;;;;;;5134403;27;20273;-71
2023/03/06 01:16:07;;;;;;;3.58;2.80;;;16.00;33.80;;;;;;5134735;27;20188;-70
2023/03/06 01:18:34;;;;;;;3.75;3.03;;;16.00;33.80;;;;;;5134039;27;20219;-70
2023/03/06 01:21:01;;;;;;;4.00;2.90;;;16.00;33.90;;;;;;5134342;27;20219;-71
2023/03/06 01:23:28;;;;;;;3.53;2.70;;;16.00;33.90;;;;;;5134449;27;20216;-74
2023/03/06 01:25:55;;;;;;;3.95;2.85;;;16.00;33.90;;;;;;5134985;27;20185;-72
2023/03/06 01:28:24;;;;;;;4.20;3.08;;;16.00;33.90;;;;;;5134207;27;20668;-72
2023/03/06 01:30:51;;;;;;;4.57;3.20;;;15.90;33.90;;;;;;5133839;27;20200;-71
2023/03/06 01:33:20;;;;;;;3.60;2.60;;;16.00;34.00;;;;;;5133963;27;20188;-71
2023/03/06 01:35:47;;;;;;;4.40;2.88;;;16.00;34.00;;;;;;5133862;27;20254;-71
2023/03/06 01:38:14;;;;;;;3.58;2.78;;;16.00;34.00;;;;;;5133882;27;20618;-71
2023/03/06 01:40:41;;;;;;;4.63;3.00;;;15.90;34.00;;;;;;5134040;27;20296;-76
2023/03/06 01:43:25;;;;;;;2.80;2.53;;;16.00;34.10;;;;;;5133635;27;20184;-70
2023/03/06 01:46:20;;;;;;;3.83;2.45;;;16.00;34.10;;;;;;5133663;27;20184;-74
2023/03/06 01:48:49;;;;;;;3.05;2.38;;;15.90;34.10;;;;;;5124127;27;20213;-75
2023/03/06 01:51:17;;;;;;;3.65;2.47;;;15.90;34.10;;;;;;5112298;27;20230;-70
2023/03/06 01:53:46;;;;;;;5.13;2.83;;;16.00;34.30;;;;;;5112638;28;20269;-71
2023/03/06 01:56:14;;;;;;;2.75;2.42;;;16.00;34.30;;;;;;5112256;28;20194;-71
2023/03/06 01:58:44;;;;;;;3.50;2.67;;;15.90;34.20;;;;;;5112202;27;20306;-70
2023/03/06 02:01:12;;;;;;;2.83;2.50;;;16.00;34.30;;;;;;5112473;28;20766;-70
2023/03/06 02:03:41;;;;;;;3.80;2.50;;;15.90;34.30;;;;;;5112156;28;20217;-70
2023/03/06 02:06:08;;;;;;;4.40;2.72;;;15.90;34.30;;;;;;5111802;28;20234;-69
2023/03/06 02:08:35;;;;;;;4.93;2.47;;;15.90;34.40;;;;;;5112290;28;20213;-71
2023/03/06 02:11:11;;;;;;;4.70;2.83;;;15.90;34.40;;;;;;5112537;28;20219;-71
2023/03/06 02:13:41;;;;;;;3.60;2.40;;;15.90;34.40;;;;;;5112430;28;20828;-76
2023/03/06 02:16:11;;;;;;;2.83;2.40;;;15.90;34.40;;;;;;5112858;28;20235;-70
2023/03/06 02:18:40;;;;;;;3.92;2.47;;;15.90;34.50;;;;;;5111631;28;20730;-71
2023/03/06 02:21:10;;;;;;;3.10;2.22;;;15.90;34.50;;;;;;5111471;28;20227;-70
2023/03/06 02:23:45;;;;;;;3.65;2.53;;;15.90;34.50;;;;;;5111926;28;20240;-70
2023/03/06 02:26:15;;;;;;;2.88;2.50;;;15.90;34.50;;;;;;5111294;28;20193;-70
2023/03/06 02:28:43;;;;;;;3.65;2.40;;;15.90;34.50;;;;;;5111475;28;20242;-71
2023/03/06 02:31:21;;;;;;;3.72;2.20;;;15.90;34.60;;;;;;5111362;28;20189;-75
2023/03/06 02:34:02;;;;;;;2.40;2.20;;;15.90;34.60;;;;;;5112041;28;20265;-74
2023/03/06 02:36:31;;;;;;;3.47;2.20;;;15.90;34.60;;;;;;5113420;28;20285;-70
2023/03/06 02:38:59;;;;;;;2.33;2.10;;;15.90;34.60;;;;;;5113286;28;20221;-76
2023/03/06 02:41:28;;;;;;;4.38;2.58;;;15.90;34.70;;;;;;5112711;28;20213;-75
2023/03/06 02:43:55;;;;;;;3.03;2.42;;;15.90;34.70;;;;;;5132682;28;20212;-75
2023/03/06 02:46:23;;;;;;;3.28;2.28;;;15.90;34.70;;;;;;5133569;27;20238;-70
2023/03/06 02:48:50;;;;;;;2.67;2.30;;;15.90;34.70;;;;;;5133038;27;20216;-71
2023/03/06 02:51:17;;;;;;;3.03;2.30;;;15.90;34.70;;;;;;5131998;27;20184;-70
2023/03/06 02:53:44;;;;;;;2.47;1.90;;;15.90;34.70;;;;;;5131726;27;20212;-70
2023/03/06 02:56:12;;;;;;;2.67;2.13;;;15.90;34.70;;;;;;5131999;27;20192;-71
2023/03/06 02:58:40;;;;;;;2.85;2.15;;;15.80;34.70;;;;;;5132599;28;20216;-71
2023/03/06 03:01:08;;;;;;;3.42;2.30;;;15.90;34.70;;;;;;5131741;27;20216;-70
2023/03/06 03:03:35;;;;;;;3.22;2.10;;;15.90;34.70;;;;;;5132051;27;20192;-70
2023/03/06 03:06:03;;;;;;;2.85;2.35;;;15.90;34.80;;;;;;5133057;27;20614;-71
2023/03/06 03:08:31;;;;;;;3.15;2.22;;;15.90;34.90;;;;;;5132627;27;20189;-70
2023/03/06 03:10:58;;;;;;;2.47;2.00;;;15.90;34.80;;;;;;5131704;27;20188;-74
2023/03/06 03:13:25;;;;;;;2.83;1.90;;;15.90;34.90;;;;;;5131641;27;20189;-71
2023/03/06 03:16:03;;;;;;;3.92;2.05;;;15.90;34.80;;;;;;5131905;27;20238;-70
2023/03/06 03:18:30;;;;;;;2.10;1.80;;;15.90;34.90;;;;;;5134048;27;20181;-72
2023/03/06 03:20:58;;;;;;;2.00;1.80;;;15.90;34.90;;;;;;5136415;27;20208;-71
2023/03/06 03:23:26;;;;;;;2.85;2.03;;;15.90;34.90;;;;;;5134972;27;20189;-70
2023/03/06 03:25:54;;;;;;;3.63;2.22;;;15.80;34.80;;;;;;5135496;27;20189;-70
2023/03/06 03:28:21;;;;;;;2.28;2.08;;;15.90;35.00;;;;;;5135225;27;20188;-71
2023/03/06 03:30:48;;;;;;;2.60;2.20;;;15.90;34.90;;;;;;5135297;27;20584;-71
2023/03/06 03:33:17;;;;;;;3.97;2.15;;;15.90;35.60;;;;;;5135856;27;20188;-71
2023/03/06 03:35:44;;;;;;;2.20;2.00;;;15.80;34.90;;;;;;5136004;27;20277;-70
2023/03/06 03:38:11;;;;;;;3.50;2.17;;;15.90;35.00;;;;;;5138011;27;20192;-74
2023/03/06 03:40:39;;;;;;;2.50;2.13;;;15.90;35.00;;;;;;5136578;27;20224;-71
2023/03/06 03:43:06;;;;;;;2.55;1.88;;;15.90;35.00;;;;;;5136849;27;20189;-71
2023/03/06 03:45:33;;;;;;;3.53;2.10;;;15.80;34.90;;;;;;5136958;27;20289;-71
2023/03/06 03:48:00;;;;;;;2.35;2.05;;;15.80;34.90;;;;;;5138075;27;20584;-71
2023/03/06 03:50:30;;;;;;;4.03;2.10;;;15.90;35.00;;;;;;5137700;27;20668;-71
2023/03/06 03:52:58;;;;;;;2.97;2.00;;;15.80;35.00;;;;;;5136799;27;20188;-72
2023/03/06 03:55:25;;;;;;;2.65;1.83;;;15.80;35.00;;;;;;5137288;27;20763;-77
2023/03/06 03:57:52;;;;;;;3.90;2.00;;;15.80;35.00;;;;;;5136979;27;20693;-74
2023/03/06 04:00:20;;;;;;;2.40;2.20;;;15.90;35.00;;;;;;5137978;27;20227;-73
2023/03/06 04:02:47;;;;;;;4.00;2.08;;;15.90;35.00;;;;;;5136931;27;20607;-77
2023/03/06 04:05:16;;;;;;;3.30;2.22;;;15.80;35.00;;;;;;5136351;27;20257;-72
2023/03/06 04:07:45;;;;;;;4.60;1.83;;;15.80;35.10;;;;;;5135501;27;20188;-71
2023/03/06 04:10:13;;;;;;;2.67;1.98;;;15.80;35.10;;;;;;5135776;27;20216;-72
2023/03/06 04:12:40;;;;;;;4.82;1.90;;;15.80;35.10;;;;;;5136191;27;20206;-77
2023/03/06 04:15:08;;;;;;;2.67;2.00;;;15.80;35.10;;;;;;5135968;27;20441;-74
2023/03/06 04:17:35;;;;;;;2.00;1.70;;;15.80;35.10;;;;;;5136445;27;20184;-71
2023/03/06 04:20:03;;;;;;;3.03;1.85;;;15.80;35.10;;;;;;5136851;27;20437;-70
2023/03/06 04:22:31;;;;;;;3.83;2.05;;;15.80;35.10;;;;;;5136857;27;20284;-70
2023/03/06 04:24:59;;;;;;;2.03;1.80;;;15.80;35.10;;;;;;5136215;27;20697;-72
2023/03/06 04:27:26;;;;;;;1.90;1.70;;;15.80;35.10;;;;;;5136287;27;20185;-71
2023/03/06 04:29:55;;;;;;;3.10;1.90;;;15.80;35.10;;;;;;5135914;27;20712;-70
2023/03/06 04:32:22;;;;;;;3.00;2.08;;;15.80;35.10;;;;;;5136872;27;20984;-70
2023/03/06 04:34:49;;;;;;;2.20;2.00;;;15.80;35.10;;;;;;5135023;27;20713;-74
2023/03/06 04:37:20;;;;;;;3.10;1.90;;;15.80;35.10;;;;;;5136166;27;20188;-70
2023/03/06 04:39:47;;;;;;;5.25;2.22;;;15.80;35.20;;;;;;5134529;27;20216;-71
2023/03/06 04:42:16;;;;;;;3.15;2.00;;;15.80;35.20;;;;;;5134835;27;20208;-73
2023/03/06 04:44:44;;;;;;;2.75;2.00;;;15.80;35.20;;;;;;5134844;27;20216;-74
2023/03/06 04:47:12;;;;;;;2.40;1.90;;;15.80;35.20;;;;;;5134782;27;20242;-71
2023/03/06 04:49:39;;;;;;;2.15;1.92;;;15.80;35.20;;;;;;5134329;27;20577;-71
2023/03/06 04:52:07;;;;;;;2.05;1.85;;;15.80;35.30;;;;;;5134705;27;20241;-76
2023/03/06 04:54:34;;;;;;;3.08;2.47;;;15.80;35.30;;;;;;5134948;27;20220;-75
2023/03/06 04:57:01;;;;;;;1.98;1.60;;;15.80;35.30;;;;;;5134598;27;20237;-71
2023/03/06 04:59:30;;;;;;;4.70;1.90;;;15.80;35.30;;;;;;5134072;27;20251;-71
2023/03/06 05:01:57;;;;;;;4.38;2.20;;;15.80;35.30;;;;;;5134561;27;20213;-70
2023/03/06 05:04:25;;;;;;;2.22;2.03;;;15.80;35.30;;;;;;5134144;27;20265;-70
2023/03/06 05:06:52;;;;;;;2.13;1.70;;;15.70;35.20;;;;;;5133536;27;20603;-71
2023/03/06 05:09:19;;;;;;;2.00;1.73;;;15.80;35.30;;;;;;5133657;27;20213;-71
2023/03/06 05:11:46;;;;;;;2.60;1.85;;;15.70;35.30;;;;;;5133517;27;20231;-71
2023/03/06 05:14:13;;;;;;;3.40;1.85;;;15.70;35.30;;;;;;5134146;27;20701;-69
2023/03/06 05:16:42;;;;;;;2.72;2.10;;;15.70;35.30;;;;;;5133211;27;20195;-72
2023/03/06 05:19:09;;;;;;;1.98;1.77;;;15.70;35.30;;;;;;5133308;27;20212;-70
2023/03/06 05:21:36;;;;;;;3.33;2.30;;;15.70;35.30;;;;;;5133326;27;20212;-70
2023/03/06 05:24:04;;;;;;;2.22;1.98;;;15.70;35.30;;;;;;5133144;27;20755;-70
2023/03/06 05:26:33;;;;;;;2.22;1.90;;;15.70;35.30;;;;;;5132918;27;20185;-70
2023/03/06 05:29:00;;;;;;;3.97;2.00;;;15.70;35.30;;;;;;5132651;27;20751;-70
2023/03/06 05:31:28;;;;;;;2.85;1.80;;;15.70;35.30;;;;;;5133357;27;20246;-73
2023/03/06 05:33:57;;;;;;;3.55;1.92;;;15.70;35.30;;;;;;5133806;27;20199;-70
2023/03/06 05:36:25;;;;;;;2.72;1.70;;;15.70;35.30;;;;;;5133193;27;20232;-74
2023/03/06 05:38:53;;;;;;;3.05;2.10;;;15.70;35.30;;;;;;5132552;27;20189;-72
2023/03/06 05:41:20;;;;;;;2.47;1.65;;;15.70;35.30;;;;;;5132415;27;20208;-71
2023/03/06 05:43:47;;;;;;;1.98;1.85;;;15.70;35.30;;;;;;5132738;27;20560;-70
2023/03/06 05:46:14;;;;;;;1.75;1.65;;;15.70;35.40;;;;;;5133653;27;20229;-71
2023/03/06 05:48:42;;;;;;;2.05;1.55;;;15.70;35.40;;;;;;5133333;27;20797;-73
2023/03/06 05:51:11;;;;;;;1.92;1.63;;;15.70;35.40;;;;;;5134643;27;20184;-75
2023/03/06 05:53:39;;;;;;;2.38;1.60;;;15.70;35.40;;;;;;5134695;27;20185;-72
2023/03/06 05:56:09;;;;;;;1.92;1.73;;;15.80;35.50;;;;;;5135258;27;20185;-74
2023/03/06 05:58:37;;;;;;;2.22;1.70;;;15.80;35.50;;;;;;5134937;27;20187;-70
2023/03/06 06:01:10;;;;;;;4.35;2.00;;;15.80;35.50;;;;;;5132988;27;20279;-72
2023/03/06 06:03:37;;;;;;;1.65;1.55;;;15.90;35.60;;;;;;5134227;27;20181;-73
2023/03/06 06:06:05;;;;;;;2.08;1.88;;;15.90;35.50;;;;;;5135066;27;20251;-70
2023/03/06 06:08:35;;;;;;;3.03;1.80;;;15.90;35.50;;;;;;5098734;27;20192;-74
2023/03/06 06:11:04;;;;;;;2.15;1.70;;;15.90;35.50;;;;;;5134475;27;20212;-76
2023/03/06 06:13:32;;;;;;;2.83;1.60;;;16.00;35.60;;;;;;5134385;27;20193;-74
2023/03/06 06:15:59;;;;;;;2.13;1.65;;;16.00;35.50;;;;;;5134470;27;20277;-73
2023/03/06 06:18:26;;;;;;;3.88;1.65;;;16.00;35.50;;;;;;5134704;27;20186;-73
2023/03/06 06:20:53;;;;;;;2.60;1.90;;;16.00;35.50;;;;;;5134421;27;20212;-71
2023/03/06 06:23:20;;;;;;;1.80;1.70;;;16.10;36.20;;;;;;5134776;27;20184;-71
2023/03/06 06:25:50;;;;;;;2.25;1.88;;;16.10;35.50;;;;;;5135584;27;20269;-71
2023/03/06 06:28:17;;;;;;;2.10;1.65;;;16.10;35.50;;;;;;5135294;27;20213;-71
2023/03/06 06:30:44;;;;;;;2.83;1.60;;;16.20;35.60;;;;;;5134718;27;20264;-73
2023/03/06 06:33:11;;;;;;;2.00;1.80;;;16.20;35.50;;;;;;5133235;28;20181;-74
2023/03/06 06:35:38;;;;;;;1.88;1.58;;;16.20;35.50;;;;;;5134223;27;20228;-71
2023/03/06 06:38:05;;;;;;;3.63;1.80;;;16.30;35.60;;;;;;5098336;28;20245;-70
2023/03/06 06:40:33;;;;;;;1.63;1.52;;;16.30;35.60;;;;;;5134690;27;20556;-71
2023/03/06 06:43:01;;;;;;;2.58;1.63;;;16.20;35.50;;;;;;5133865;27;20216;-71
2023/03/06 06:45:29;;;;;;;2.63;1.90;;;16.40;35.60;;;;;;5134879;27;20212;-78
2023/03/06 06:47:57;;;;;;;2.33;1.80;;;16.40;35.60;;;;;;5134102;27;20241;-71
2023/03/06 06:50:24;;;;;;;2.42;1.60;;;16.30;35.50;;;;;;5133889;27;20261;-73
2023/03/06 06:52:51;;;;;;;3.03;1.80;;;16.40;35.50;;;;;;5135729;27;20209;-73
2023/03/06 06:55:18;;;;;;;1.85;1.70;;;16.40;35.50;;;;;;5136376;27;20269;-73
2023/03/06 06:57:45;;;;;;;2.22;1.70;;;16.40;35.50;;;;;;5137452;27;20237;-71
2023/03/06 07:00:16;;;;;;;2.45;1.80;;;16.50;35.60;;;;;;5137742;27;20277;-71
2023/03/06 07:02:47;;;;;;;2.78;1.95;;;16.50;35.60;;;;;;5137066;27;20215;-73
2023/03/06 07:05:15;;;;;;;2.70;2.22;;;16.50;35.50;;;;;;5137343;27;20305;-71
2023/03/06 07:07:43;;;;;;;2.95;1.75;;;16.50;35.50;;;;;;5136098;27;20189;-71
2023/03/06 07:10:14;;;;;;;1.70;1.52;;;16.60;35.60;;;;;;5136178;27;20212;-73
2023/03/06 07:12:41;;;;;;;2.45;1.80;;;16.60;35.60;;;;;;5136263;27;20192;-72
2023/03/06 07:15:12;;;;;;;2.35;1.80;;;16.60;35.60;;;;;;5134570;27;20765;-71
2023/03/06 07:17:40;;;;;;;3.78;2.03;;;16.60;35.60;;;;;;5136551;27;20236;-72
2023/03/06 07:20:09;;;;;;;2.78;1.90;;;16.60;35.60;;;;;;5136971;27;20212;-71
2023/03/06 07:22:36;;;;;;;1.80;1.55;;;16.70;35.90;;;;;;5136446;27;20227;-71
2023/03/06 07:25:04;;;;;;;2.35;1.85;;;16.70;35.70;;;;;;5136090;27;20348;-71
2023/03/06 07:27:32;;;;;;;2.30;1.92;;;16.70;35.60;;;;;;5136039;27;20615;-74
2023/03/06 07:29:59;;;;;;;3.30;1.80;;;16.70;35.60;;;;;;5136674;27;20678;-71
2023/03/06 07:32:26;;;;;;;2.78;2.03;;;16.70;35.60;;;;;;5136687;27;20181;-71
2023/03/06 07:34:55;;;;;;;2.03;1.83;;;16.70;35.50;;;;;;5135823;27;20272;-74
2023/03/06 07:37:22;;;;;;;2.83;2.03;;;16.70;35.50;;;;;;5134118;27;20318;-71
2023/03/06 07:39:50;;;;;;;3.13;2.08;;;16.80;35.60;;;;;;5136211;27;20274;-71
2023/03/06 07:42:17;;;;;;;2.88;2.25;;;16.80;35.60;;;;;;5135674;27;20219;-71
2023/03/06 07:44:45;;;;;;;4.38;2.08;;;16.80;35.60;;;;;;5135685;27;20219;-71
2023/03/06 07:47:13;;;;;;;2.72;2.30;;;16.80;35.50;;;;;;5136955;27;20193;-76
2023/03/06 07:49:41;;;;;;;3.17;2.42;;;16.80;35.60;;;;;;5136822;27;20217;-75
2023/03/06 07:52:13;;;;;;;3.08;2.05;;;16.90;35.60;;;;;;5137048;27;20230;-71
2023/03/06 07:54:40;;;;;;;2.95;2.30;;;16.90;35.60;;;;;;5137398;27;20806;-71
2023/03/06 07:57:08;;;;;;;3.85;1.95;;;16.90;35.60;;;;;;5136835;27;20184;-71
2023/03/06 07:59:35;;;;;;;4.80;1.88;;;16.90;35.60;;;;;;5137342;27;20216;-72
2023/03/06 08:02:03;;;;;;;3.63;2.17;;;16.90;35.50;;;;;;5136348;27;20602;-72
2023/03/06 08:04:30;;;;;;;3.17;2.47;;;17.00;35.60;;;;;;5136188;27;20226;-71
2023/03/06 08:06:59;;;;;;;3.03;1.80;;;17.00;35.60;;;;;;5136375;27;20185;-71
2023/03/06 08:09:29;;;;;;;3.00;2.20;;;17.00;35.60;;;;;;5135743;27;20701;-71
2023/03/06 08:11:56;;;;;;;3.33;2.17;;;17.00;35.60;;;;;;5136639;27;20542;-71
2023/03/06 08:14:23;;;;;;;2.67;2.10;;;17.00;35.60;;;;;;5136380;27;20212;-71
2023/03/06 08:16:51;;;;;;;3.70;2.10;;;17.00;35.60;;;;;;5136654;27;20331;-72
2023/03/06 08:19:18;;;;;;;3.13;2.05;;;17.00;35.60;;;;;;5136180;27;20215;-71
2023/03/06 08:21:45;;;;;;;3.17;2.33;;;17.00;35.50;;;;;;5136257;27;20216;-71
2023/03/06 08:24:15;;;;;;;2.67;2.03;;;17.10;35.70;;;;;;5136406;27;20212;-71
2023/03/06 08:26:45;;;;;;;4.28;2.20;;;17.00;35.50;;;;;;5136045;27;20241;-71
2023/03/06 08:29:12;;;;;;;2.47;2.10;;;17.10;35.60;;;;;;5135556;27;20850;-73
2023/03/06 08:31:41;;;;;;;3.70;2.40;;;17.10;35.60;;;;;;5136816;27;20703;-72
2023/03/06 08:34:10;;;;;;;2.22;2.03;;;17.10;35.60;;;;;;5136505;27;20195;-72
2023/03/06 08:36:37;;;;;;;3.38;1.95;;;17.10;35.60;;;;;;5136081;27;20228;-70
2023/03/06 08:39:05;;;;;;;2.60;1.90;;;17.20;35.60;;;;;;5135517;27;20235;-71
2023/03/06 08:41:32;;;;;;;2.60;2.20;;;17.10;35.50;;;;;;5136358;27;20634;-72
2023/03/06 08:44:02;;;;;;;2.30;2.00;;;17.10;35.50;;;;;;5135692;27;20740;-73
2023/03/06 08:46:30;;;;;;;2.45;1.88;;;17.20;35.60;;;;;;5136271;27;20184;-70
2023/03/06 08:48:58;;;;;;;2.40;2.20;;;17.20;35.60;;;;;;5136012;27;20188;-73
2023/03/06 08:51:26;;;;;;;3.65;1.77;;;17.20;35.60;;;;;;5136479;27;20219;-72
2023/03/06 08:53:54;;;;;;;2.60;1.90;;;17.20;35.50;;;;;;5135961;27;20211;-74
2023/03/06 08:56:23;;;;;;;2.65;1.98;;;17.20;35.50;;;;;;5136709;27;20212;-71
2023/03/06 08:58:50;;;;;;;2.78;2.22;;;17.20;35.60;;;;;;5135269;27;20189;-73
2023/03/06 09:01:21;;;;;;;2.53;2.10;;;17.20;35.50;;;;;;5135281;27;20216;-71
2023/03/06 09:03:49;;;;;;;1.92;1.77;;;17.20;35.50;;;;;;5135642;27;20728;-71
2023/03/06 09:06:16;;;;;;;3.35;2.00;;;17.20;35.50;;;;;;5136208;27;20727;-70
2023/03/06 09:08:43;;;;;;;2.85;1.80;;;17.30;35.60;;;;;;5135202;27;20188;-71
2023/03/06 09:11:11;;;;;;;4.05;2.30;;;17.30;35.60;;;;;;5134514;27;20221;-72
2023/03/06 09:13:39;;;;;;;2.47;1.80;;;17.30;35.60;;;;;;5134978;27;20234;-72
2023/03/06 09:16:07;;;;;;;2.65;1.80;;;17.30;35.60;;;;;;5133926;27;20213;-73
2023/03/06 09:18:36;;;;;;;2.30;1.80;;;17.30;35.60;;;;;;5134602;27;20209;-74
2023/03/06 09:21:04;;;;;;;4.70;1.83;;;17.30;35.50;;;;;;5135562;27;20216;-72
2023/03/06 09:23:32;;;;;;;4.25;1.73;;;17.30;35.50;;;;;;5135517;27;20212;-71
2023/03/06 09:26:00;;;;;;;2.13;1.85;;;17.30;35.50;;;;;;5135147;27;20273;-71
2023/03/06 09:28:28;;;;;;;3.13;1.70;;;17.30;35.50;;;;;;5135663;27;20209;-71
2023/03/06 09:30:55;;;;;;;2.30;1.70;;;17.30;35.50;;;;;;5134814;27;20247;-72
2023/03/06 09:33:23;;;;;;;2.30;1.70;;;17.40;35.50;;;;;;5135373;27;20184;-72
2023/03/06 09:35:54;;;;;;;2.25;1.60;;;17.40;35.50;;;;;;5135344;27;20288;-76
2023/03/06 09:38:22;;;;;;;3.30;1.80;;;17.40;35.50;;;;;;5134920;27;20617;-72
2023/03/06 09:41:01;;;;;;;2.42;1.90;;;17.40;35.50;;;;;;5134501;27;20216;-77
2023/03/06 09:43:31;;;;;;;3.78;1.73;;;17.40;35.60;;;;;;5134818;27;20265;-71
2023/03/06 09:45:59;;;;;;;2.90;1.80;;;17.40;35.50;;;;;;5135085;27;20262;-75
2023/03/06 09:48:37;;;;;;;3.72;1.77;;;17.40;35.40;;;;;;5134609;27;20185;-74
2023/03/06 09:51:12;;;;;;;2.67;1.60;;;17.40;35.50;;;;;;5134015;27;20212;-71
2023/03/06 09:53:54;;;;;;;1.80;1.70;;;17.50;35.50;;;;;;5133495;27;20196;-71
2023/03/06 09:56:23;;;;;;;2.70;2.00;;;17.50;35.50;;;;;;5134231;27;20351;-73
2023/03/06 09:58:55;;;;;;;3.13;1.88;;;17.50;35.50;;;;;;5132985;27;20234;-71
2023/03/06 10:01:26;;;;;;;2.33;1.60;;;17.50;35.50;;;;;;5132759;27;20272;-72
2023/03/06 10:03:56;;;;;;;2.42;2.03;;;17.50;35.50;;;;;;5133366;27;20212;-73
2023/03/06 10:06:30;;;;;;;2.65;1.90;;;17.50;35.60;;;;;;5133668;27;20221;-72
2023/03/06 10:09:02;;;;;;;2.95;1.80;;;17.50;35.40;;;;;;5132932;27;20184;-73
2023/03/06 10:11:35;;;;;;;5.03;1.95;;;17.50;35.40;;;;;;5133226;27;20261;-72
2023/03/06 10:14:16;;;;;;;2.35;1.58;;;17.40;35.40;;;;;;5132971;27;20271;-71
2023/03/06 10:16:43;;;;;;;2.53;1.73;;;17.40;35.60;;;;;;5133040;27;20736;-71
2023/03/06 10:19:15;;;;;;;3.75;1.75;;;17.40;35.70;;;;;;5132980;27;20245;-73
2023/03/06 10:21:57;;;;;;;2.22;1.85;;;17.40;35.70;;;;;;5132179;27;20205;-72
2023/03/06 10:24:44;;;;;;;4.47;2.10;;;17.40;35.80;;;;;;5133090;27;20200;-73
2023/03/06 10:27:22;;;;;;;3.13;2.00;;;17.40;35.70;;;;;;5132403;27;20193;-72
2023/03/06 10:29:56;;;;;;;3.22;1.70;;;17.40;35.50;;;;;;5132538;27;20243;-71
2023/03/06 10:32:28;;;;;;;2.72;1.83;;;17.40;35.40;;;;;;5133008;27;20650;-73
2023/03/06 10:34:59;;;;;;;3.30;1.90;;;17.40;35.00;;;;;;5131944;27;20689;-72
2023/03/06 10:37:29;;;;;;;2.97;2.00;;;17.40;34.50;;;;;;5132531;27;20223;-75
2023/03/06 10:40:03;;;;;;;5.22;1.98;;;17.30;34.30;;;;;;5132462;27;20310;-73
2023/03/06 10:42:31;;;;;;;4.50;1.88;;;17.30;34.20;;;;;;5132539;27;20215;-73
2023/03/06 10:45:09;;;;;;;6.45;1.75;;;17.30;34.20;;;;;;5132248;27;20216;-71
2023/03/06 10:47:37;;;;;;;4.65;2.45;;;17.30;34.20;;;;;;5132708;27;20188;-73
2023/03/06 10:50:17;;;;;;;2.67;1.80;;;17.30;34.20;;;;;;5132572;27;20261;-70
2023/03/06 10:52:45;;;;;;;2.67;1.55;;;17.30;34.20;;;;;;5132821;27;20785;-71
2023/03/06 10:55:28;;;;;;;1.77;1.67;;;17.30;34.20;;;;;;5132499;27;20261;-76
2023/03/06 10:57:56;;;;;;;7.32;1.95;;;17.30;34.30;;;;;;5132435;28;20184;-72
2023/03/06 11:00:30;;;;;;;2.75;1.70;;;17.30;34.80;;;;;;5132180;27;20212;-77
2023/03/06 11:03:18;;;;;;;2.58;1.65;;;17.40;37.00;;;;;;5132102;27;20209;-71
2023/03/06 11:06:00;;;;;;;1.77;1.30;;;17.40;40.00;;;;;;5132241;27;20770;-73
2023/03/06 11:08:29;;;;;;;2.95;1.60;;;17.40;38.40;;;;;;5131967;27;20661;-72
2023/03/06 11:10:59;;;;;;;1.90;1.33;;;17.50;38.00;;;;;;5131942;27;20302;-72
2023/03/06 11:13:28;;;;;;;3.22;1.80;;;17.50;38.00;;;;;;5132253;27;20651;-72
2023/03/06 11:16:00;;;;;;;4.55;1.60;;;17.50;38.00;;;;;;5132623;27;20216;-76
2023/03/06 11:18:33;;;;;;;1.92;1.60;;;17.50;38.00;;;;;;5132192;27;20234;-72
2023/03/06 11:21:03;;;;;;;4.05;1.40;;;17.60;38.00;;;;;;5132216;27;20698;-72
2023/03/06 11:23:39;;;;;;;4.80;1.80;;;17.60;38.00;;;;;;5132218;27;20212;-74
2023/03/06 11:26:24;;;;;;;2.22;1.60;;;17.60;37.90;;;;;;5131731;27;20277;-73
2023/03/06 11:29:02;;;;;;;2.78;1.70;;;17.60;37.80;;;;;;5132187;27;20658;-72
2023/03/06 11:31:33;;;;;;;1.83;1.40;;;17.60;37.80;;;;;;5132256;27;20284;-74
2023/03/06 11:34:08;;;;;;;3.20;1.42;;;17.60;37.60;;;;;;5132021;27;20233;-72
2023/03/06 11:36:39;;;;;;;4.28;1.60;;;17.60;37.50;;;;;;5131836;27;20228;-73
2023/03/06 11:39:21;;;;;;;2.72;1.70;;;17.60;37.40;;;;;;5132775;27;20245;-73
2023/03/06 11:41:57;;;;;;;2.53;1.42;;;17.60;37.20;;;;;;5135894;27;20212;-76
2023/03/06 11:44:34;;;;;;;1.60;1.50;;;17.60;37.20;;;;;;5135596;27;20748;-76
2023/03/06 11:47:10;;;;;;;2.03;1.60;;;17.60;37.10;;;;;;5135864;27;20192;-73
2023/03/06 11:49:43;;;;;;;4.03;1.75;;;17.70;37.10;;;;;;5134458;27;20188;-72
2023/03/06 11:52:22;;;;;;;1.80;1.42;;;17.70;37.00;;;;;;5136276;27;20650;-76
2023/03/06 11:54:55;;;;;;;1.77;1.50;;;17.70;37.00;;;;;;5135809;27;20283;-75
2023/03/06 11:57:25;;;;;;;1.40;1.30;;;17.70;36.80;;;;;;5135301;27;20189;-73
2023/03/06 12:00:08;;;;;;;1.95;1.45;;;17.70;36.80;;;;;;5135618;27;20303;-72
2023/03/06 12:03:12;;;;;;;1.73;1.45;;;17.70;36.70;;;;;;5135415;27;20185;-73
2023/03/06 12:05:46;;;;;;;2.25;1.60;;;17.70;36.70;;;;;;5136124;27;20619;-73
2023/03/06 12:08:31;;;;;;;2.30;1.63;;;17.70;36.60;;;;;;5135470;27;20191;-75
2023/03/06 12:11:05;;;;;;;1.60;1.30;;;17.70;36.50;;;;;;5135511;27;20209;-73
2023/03/06 12:13:54;;;;;;;1.45;1.30;;;17.70;36.50;;;;;;5135056;27;20704;-73
2023/03/06 12:16:48;;;;;;;1.85;1.42;;;17.70;36.40;;;;;;5135709;27;20212;-72
2023/03/06 12:19:37;;;;;;;2.22;1.50;;;17.80;36.40;;;;;;5130155;27;20196;-71
2023/03/06 12:22:26;;;;;;;1.58;1.42;;;17.70;36.30;;;;;;5071662;28;20195;-77
2023/03/06 12:25:02;;;;;;;1.85;1.33;;;17.80;36.30;;;;;;5071041;28;20356;-76
2023/03/06 12:27:42;;;;;;;3.72;1.55;;;17.70;36.20;;;;;;5071271;28;20195;-73
2023/03/06 12:30:49;;;;;;;1.40;1.25;;;17.80;36.30;;;;;;5071373;28;20727;-72
2023/03/06 12:33:24;;;;;;;1.88;1.60;;;17.80;36.20;;;;;;5071371;28;20240;-72
2023/03/06 12:36:01;;;;;;;1.70;1.60;;;17.80;36.20;;;;;;5054886;28;20230;-72
2023/03/06 12:38:49;;;;;;;1.83;1.40;;;17.80;36.10;;;;;;5070621;28;20194;-74
2023/03/06 12:41:28;;;;;;;1.77;1.58;;;17.80;36.10;;;;;;5070834;28;20269;-72
2023/03/06 12:44:20;;;;;;;1.40;1.30;;;17.70;35.90;;;;;;5071221;28;20623;-72
2023/03/06 12:46:53;;;;;;;1.42;1.33;;;17.80;36.00;;;;;;5010974;28;20217;-72
2023/03/06 12:49:25;;;;;;;1.50;1.40;;;17.80;36.00;;;;;;5010754;28;20521;-73
2023/03/06 12:51:54;;;;;;;1.48;1.38;;;17.80;35.90;;;;;;5011336;28;20260;-76
2023/03/06 12:54:24;;;;;;;2.83;1.30;;;17.80;35.90;;;;;;5011356;28;20648;-73
2023/03/06 12:56:53;;;;;;;2.40;1.50;;;17.80;35.80;;;;;;5010740;28;20677;-75
2023/03/06 12:59:41;;;;;;;1.50;1.40;;;17.80;35.80;;;;;;5030470;28;20246;-77
2023/03/06 13:02:46;;;;;;;1.98;1.20;;;17.80;35.70;;;;;;5050649;28;20279;-72
2023/03/06 13:05:55;;;;;;;1.50;1.30;;;17.80;35.70;;;;;;5031449;28;20220;-74